Time;durP1;ratioP1;P1;durP2;ratioP2;P2;SDS_P1;SDS_P2;PMS_P1;PMS_P2;Temp;Humidity;BMP_temperature;BMP_pressure;BME280_temperature;BME280_humidity;BME280_pressure;Samples;Min_cycle;Max_cycle;Signal;HPM_P1;HPM_P2
2021/04/30 00:01:52;;;;;;;1.65;0.68;;;37.70;11.00;;;;;;5095506;28;20125;-63
2021/04/30 00:04:19;;;;;;;2.45;0.60;;;37.80;11.20;;;;;;5081653;28;20151;-63
2021/04/30 00:06:45;;;;;;;2.38;0.73;;;37.80;11.00;;;;;;5082241;28;20125;-64
2021/04/30 00:09:12;;;;;;;5.45;0.80;;;37.60;11.10;;;;;;5080085;28;20080;-62
2021/04/30 00:11:38;;;;;;;3.42;0.93;;;37.30;11.30;;;;;;5093609;28;20100;-63
2021/04/30 00:14:05;;;;;;;3.38;1.02;;;37.10;11.70;;;;;;5096487;28;20077;-61
2021/04/30 00:16:32;;;;;;;3.90;0.80;;;37.30;11.70;;;;;;5092493;28;20180;-63
2021/04/30 00:18:58;;;;;;;3.92;0.80;;;37.20;11.80;;;;;;5098044;28;20094;-64
2021/04/30 00:21:25;;;;;;;3.38;0.80;;;37.30;11.40;;;;;;5095506;28;20084;-64
2021/04/30 00:23:56;;;;;;;3.72;0.73;;;37.20;11.50;;;;;;5089227;28;20472;-63
2021/04/30 00:26:22;;;;;;;5.28;0.82;;;37.30;11.30;;;;;;5092696;28;20590;-63
2021/04/30 00:28:49;;;;;;;3.47;0.63;;;37.30;11.20;;;;;;5099410;28;20084;-62
2021/04/30 00:31:18;;;;;;;1.85;0.90;;;37.20;11.00;;;;;;5096223;28;20088;-61
2021/04/30 00:33:45;;;;;;;5.88;0.60;;;37.10;11.30;;;;;;5077951;28;20461;-61
2021/04/30 00:36:11;;;;;;;3.20;0.80;;;36.90;11.40;;;;;;5099461;28;20141;-63
2021/04/30 00:38:38;;;;;;;6.70;0.80;;;36.90;11.80;;;;;;5079785;28;20133;-62
2021/04/30 00:41:04;;;;;;;3.70;0.63;;;36.90;11.50;;;;;;5093013;28;20551;-63
2021/04/30 00:43:31;;;;;;;5.15;0.80;;;36.90;12.10;;;;;;5076951;28;20108;-62
2021/04/30 00:45:57;;;;;;;1.98;0.80;;;37.00;11.50;;;;;;5096000;28;20441;-62
2021/04/30 00:48:24;;;;;;;6.07;1.00;;;37.00;11.50;;;;;;5094159;28;20537;-62
2021/04/30 00:50:52;;;;;;;3.78;0.50;;;36.90;11.60;;;;;;5082168;28;20092;-65
2021/04/30 00:53:19;;;;;;;4.40;0.60;;;36.70;11.40;;;;;;5077558;28;20111;-63
2021/04/30 00:55:45;;;;;;;5.63;0.90;;;36.60;11.60;;;;;;5097969;28;20065;-62
2021/04/30 00:58:12;;;;;;;2.53;0.80;;;36.50;11.50;;;;;;5097021;28;20073;-63
2021/04/30 01:00:39;;;;;;;5.47;0.60;;;36.40;11.40;;;;;;5097626;28;20147;-62
2021/04/30 01:03:09;;;;;;;4.68;0.75;;;36.40;11.30;;;;;;5096855;28;20080;-60
2021/04/30 01:05:37;;;;;;;5.10;0.77;;;36.30;11.10;;;;;;5100357;28;20102;-62
2021/04/30 01:08:05;;;;;;;5.03;1.23;;;36.20;11.30;;;;;;5099374;28;20091;-61
2021/04/30 01:10:32;;;;;;;5.00;1.20;;;36.20;11.20;;;;;;5082465;28;20128;-63
2021/04/30 01:12:59;;;;;;;3.13;0.80;;;36.10;11.30;;;;;;5097203;28;20099;-62
2021/04/30 01:15:26;;;;;;;5.82;1.15;;;36.10;11.40;;;;;;5095563;28;20081;-62
2021/04/30 01:17:53;;;;;;;3.85;1.00;;;36.00;11.50;;;;;;5094628;28;20100;-60
2021/04/30 01:20:20;;;;;;;5.13;0.90;;;35.90;11.10;;;;;;5100488;28;20078;-60
2021/04/30 01:22:55;;;;;;;4.90;1.05;;;35.90;11.50;;;;;;5100978;28;20079;-63
2021/04/30 01:25:27;;;;;;;1.98;1.00;;;35.80;10.90;;;;;;5096992;28;20076;-60
2021/04/30 01:27:55;;;;;;;4.35;0.90;;;35.70;11.00;;;;;;5098556;28;20080;-62
2021/04/30 01:30:29;;;;;;;1.60;0.75;;;35.60;11.40;;;;;;5097438;28;20081;-63
2021/04/30 01:32:57;;;;;;;2.80;0.85;;;35.70;11.20;;;;;;5097718;28;20092;-59
2021/04/30 01:35:35;;;;;;;3.90;0.80;;;35.70;11.20;;;;;;5095263;28;20077;-60
2021/04/30 01:38:04;;;;;;;3.08;0.82;;;35.70;11.10;;;;;;5096522;28;20075;-62
2021/04/30 01:40:33;;;;;;;2.65;0.90;;;35.50;10.90;;;;;;5095381;28;20095;-62
2021/04/30 01:43:05;;;;;;;2.47;1.00;;;35.20;10.90;;;;;;5081965;28;20084;-62
2021/04/30 01:45:43;;;;;;;2.42;1.42;;;35.10;11.00;;;;;;5099698;28;20123;-60
2021/04/30 01:48:13;;;;;;;3.70;1.25;;;35.00;11.70;;;;;;5102978;28;20188;-62
2021/04/30 01:50:40;;;;;;;6.93;1.30;;;34.90;11.10;;;;;;5100330;28;20189;-62
2021/04/30 01:53:12;;;;;;;4.18;1.30;;;34.80;11.10;;;;;;5099122;28;20096;-62
2021/04/30 01:55:41;;;;;;;5.78;0.88;;;34.60;11.00;;;;;;5092555;28;20092;-61
2021/04/30 01:58:08;;;;;;;2.88;0.85;;;34.60;11.20;;;;;;5097453;28;20076;-62
2021/04/30 02:00:36;;;;;;;3.47;1.60;;;34.50;11.30;;;;;;5080898;28;20604;-60
2021/04/30 02:03:03;;;;;;;9.07;1.80;;;34.30;11.30;;;;;;5096787;28;20108;-62
2021/04/30 02:05:31;;;;;;;10.52;3.50;;;34.30;11.40;;;;;;5097833;28;20069;-62
2021/04/30 02:08:03;;;;;;;9.30;2.90;;;34.20;11.50;;;;;;5100059;28;20079;-63
2021/04/30 02:10:30;;;;;;;5.07;1.88;;;34.10;11.50;;;;;;5096943;28;20088;-63
2021/04/30 02:12:57;;;;;;;7.60;1.13;;;34.00;11.60;;;;;;5097065;28;20497;-63
2021/04/30 02:15:26;;;;;;;3.92;1.15;;;33.80;11.60;;;;;;5080519;28;20164;-63
2021/04/30 02:17:53;;;;;;;8.43;2.40;;;33.80;11.70;;;;;;5100813;28;20544;-63
2021/04/30 02:20:21;;;;;;;5.03;1.60;;;33.70;11.80;;;;;;5084077;28;20210;-62
2021/04/30 02:22:48;;;;;;;6.38;1.33;;;33.60;12.00;;;;;;5093447;28;20440;-62
2021/04/30 02:25:17;;;;;;;10.02;1.30;;;33.40;12.30;;;;;;5097016;28;20485;-62
2021/04/30 02:27:44;;;;;;;10.48;1.30;;;33.30;13.00;;;;;;5096436;28;20072;-60
2021/04/30 02:30:13;;;;;;;4.95;1.13;;;33.10;13.20;;;;;;5099210;28;20072;-61
2021/04/30 02:32:39;;;;;;;7.13;1.50;;;33.00;13.00;;;;;;5096396;28;20110;-60
2021/04/30 02:35:13;;;;;;;9.13;1.52;;;32.80;13.30;;;;;;5098328;28;20425;-60
2021/04/30 02:37:41;;;;;;;7.70;1.73;;;32.60;13.70;;;;;;5094279;28;20072;-61
2021/04/30 02:40:09;;;;;;;10.13;1.98;;;32.40;14.30;;;;;;5096996;28;20080;-63
2021/04/30 02:42:36;;;;;;;8.30;2.22;;;32.20;14.20;;;;;;5083804;28;20541;-61
2021/04/30 02:45:04;;;;;;;10.73;2.67;;;32.10;14.40;;;;;;5094813;28;20083;-59
2021/04/30 02:47:31;;;;;;;9.55;2.95;;;31.90;14.30;;;;;;5096478;28;20191;-60
2021/04/30 02:49:59;;;;;;;8.65;2.55;;;31.80;15.00;;;;;;5098582;28;20081;-59
2021/04/30 02:52:27;;;;;;;20.13;3.15;;;31.60;15.40;;;;;;5098055;28;20127;-60
2021/04/30 02:54:54;;;;;;;7.95;2.53;;;31.50;15.50;;;;;;5097868;28;20076;-60
2021/04/30 02:57:21;;;;;;;9.52;2.10;;;31.30;15.70;;;;;;5096349;28;20409;-61
2021/04/30 02:59:48;;;;;;;11.18;2.40;;;31.10;15.90;;;;;;5094672;28;20155;-62
2021/04/30 03:02:15;;;;;;;14.93;2.25;;;31.00;16.20;;;;;;5095547;28;20486;-62
2021/04/30 03:04:42;;;;;;;16.05;2.20;;;30.90;16.30;;;;;;5097190;28;20076;-63
2021/04/30 03:07:08;;;;;;;15.95;2.60;;;30.80;16.50;;;;;;5100850;28;20129;-61
2021/04/30 03:09:35;;;;;;;14.07;2.88;;;30.70;16.70;;;;;;5097740;28;20116;-63
2021/04/30 03:12:02;;;;;;;16.17;2.75;;;30.60;16.70;;;;;;5101539;28;20145;-62
2021/04/30 03:14:29;;;;;;;16.00;3.47;;;30.50;16.80;;;;;;5096015;28;20099;-63
2021/04/30 03:16:55;;;;;;;11.40;3.10;;;30.40;17.20;;;;;;5097671;28;20559;-62
2021/04/30 03:19:22;;;;;;;18.70;3.75;;;30.30;17.40;;;;;;5098770;28;20521;-62
2021/04/30 03:21:48;;;;;;;20.33;4.30;;;30.20;17.30;;;;;;5101556;28;20159;-62
2021/04/30 03:24:15;;;;;;;11.40;3.85;;;30.10;17.50;;;;;;5101835;28;20140;-63
2021/04/30 03:26:41;;;;;;;23.80;4.43;;;30.00;17.60;;;;;;5100436;28;20075;-62
2021/04/30 03:29:08;;;;;;;14.30;4.72;;;29.90;17.80;;;;;;5099261;28;20072;-63
2021/04/30 03:31:34;;;;;;;29.05;4.88;;;29.80;18.00;;;;;;5081275;28;20527;-63
2021/04/30 03:34:01;;;;;;;20.50;3.83;;;29.70;18.20;;;;;;5098703;28;20080;-63
2021/04/30 03:36:28;;;;;;;20.92;3.78;;;29.60;18.20;;;;;;5098654;28;20075;-62
2021/04/30 03:38:54;;;;;;;24.42;4.07;;;29.50;18.20;;;;;;5102799;28;20155;-61
2021/04/30 03:41:21;;;;;;;21.25;4.43;;;29.50;18.30;;;;;;5102030;28;20584;-61
2021/04/30 03:43:47;;;;;;;32.72;4.10;;;29.40;18.20;;;;;;5098265;28;20151;-62
2021/04/30 03:46:14;;;;;;;25.35;3.90;;;29.20;18.20;;;;;;5100141;28;20068;-65
2021/04/30 03:48:40;;;;;;;25.42;4.88;;;29.10;18.20;;;;;;5098144;28;20118;-63
2021/04/30 03:51:07;;;;;;;30.30;5.20;;;29.00;18.20;;;;;;5080849;28;20072;-63
2021/04/30 03:53:33;;;;;;;26.83;5.45;;;29.00;18.30;;;;;;5097638;28;20158;-61
2021/04/30 03:56:02;;;;;;;23.23;4.93;;;28.90;18.70;;;;;;5102670;28;20479;-62
2021/04/30 03:58:30;;;;;;;27.92;5.93;;;28.80;18.80;;;;;;5100947;28;20080;-59
2021/04/30 04:00:56;;;;;;;39.60;6.60;;;28.80;19.60;;;;;;5100363;28;20159;-61
2021/04/30 04:03:23;;;;;;;29.95;8.05;;;28.70;19.40;;;;;;5098735;28;20089;-62
2021/04/30 04:05:50;;;;;;;36.53;9.27;;;28.60;19.50;;;;;;5100905;28;20068;-61
2021/04/30 04:08:17;;;;;;;36.42;8.15;;;28.50;19.50;;;;;;5096581;28;20073;-62
2021/04/30 04:10:44;;;;;;;35.72;10.20;;;28.40;19.50;;;;;;5102380;28;20068;-62
2021/04/30 04:13:22;;;;;;;32.15;7.80;;;28.30;19.40;;;;;;5098517;28;20153;-62
2021/04/30 04:15:49;;;;;;;32.60;7.10;;;28.20;19.50;;;;;;5097737;28;20484;-63
2021/04/30 04:18:17;;;;;;;35.17;7.20;;;28.20;19.70;;;;;;5081866;28;20075;-62
2021/04/30 04:20:44;;;;;;;34.28;7.13;;;28.10;19.80;;;;;;5098623;28;20544;-59
2021/04/30 04:23:11;;;;;;;24.80;7.30;;;28.10;19.90;;;;;;5099703;28;20083;-63
2021/04/30 04:25:38;;;;;;;34.40;7.75;;;28.00;19.80;;;;;;5101009;28;20169;-62
2021/04/30 04:28:05;;;;;;;41.42;7.32;;;27.90;19.80;;;;;;5081631;28;20539;-61
2021/04/30 04:30:33;;;;;;;33.15;7.97;;;27.90;19.80;;;;;;5100017;28;20084;-62
2021/04/30 04:32:59;;;;;;;35.83;8.25;;;27.80;20.40;;;;;;5095383;28;20102;-62
2021/04/30 04:35:26;;;;;;;32.92;7.45;;;27.70;20.10;;;;;;5097636;28;20075;-62
2021/04/30 04:37:52;;;;;;;34.40;8.45;;;27.70;20.10;;;;;;5098676;28;20083;-62
2021/04/30 04:40:19;;;;;;;45.15;8.18;;;27.60;20.30;;;;;;5099359;28;20168;-60
2021/04/30 04:42:46;;;;;;;40.40;7.72;;;27.50;20.50;;;;;;5082206;28;20084;-62
2021/04/30 04:45:14;;;;;;;45.47;8.30;;;27.50;20.50;;;;;;5098869;28;20091;-61
2021/04/30 04:47:41;;;;;;;54.55;10.40;;;27.40;20.70;;;;;;5098365;28;20105;-61
2021/04/30 04:50:09;;;;;;;55.13;10.15;;;27.30;20.80;;;;;;5099535;28;20439;-61
2021/04/30 04:52:35;;;;;;;49.50;10.32;;;27.30;21.00;;;;;;5095890;28;20514;-59
2021/04/30 04:55:02;;;;;;;49.13;11.07;;;27.20;21.00;;;;;;5099138;28;20442;-61
2021/04/30 04:57:29;;;;;;;45.28;10.25;;;27.20;21.00;;;;;;5095824;28;20125;-61
2021/04/30 04:59:55;;;;;;;62.45;11.05;;;27.10;21.10;;;;;;5096733;28;20074;-62
2021/04/30 05:02:22;;;;;;;57.08;11.82;;;27.10;21.20;;;;;;5099172;28;20117;-60
2021/04/30 05:04:48;;;;;;;59.60;12.93;;;27.00;21.30;;;;;;5098019;28;20072;-61
2021/04/30 05:07:15;;;;;;;50.65;10.95;;;26.90;21.30;;;;;;5083367;28;20068;-61
2021/04/30 05:09:41;;;;;;;55.65;11.88;;;26.90;21.60;;;;;;5080718;28;20076;-61
2021/04/30 05:12:08;;;;;;;51.08;10.88;;;26.90;21.80;;;;;;5101363;28;20124;-61
2021/04/30 05:14:35;;;;;;;71.07;11.70;;;26.90;22.00;;;;;;5100135;28;20476;-62
2021/04/30 05:17:01;;;;;;;52.33;11.68;;;26.80;22.30;;;;;;5101145;28;20195;-61
2021/04/30 05:19:28;;;;;;;66.03;12.27;;;26.70;22.20;;;;;;5099089;28;20445;-60
2021/04/30 05:21:54;;;;;;;71.43;12.85;;;26.70;22.10;;;;;;5082392;28;20169;-63
2021/04/30 05:24:21;;;;;;;80.13;13.43;;;26.60;22.30;;;;;;5101017;28;20077;-63
2021/04/30 05:26:48;;;;;;;79.63;13.77;;;26.60;22.30;;;;;;5085157;28;20080;-60
2021/04/30 05:29:15;;;;;;;80.30;13.07;;;26.60;22.60;;;;;;5100736;28;20106;-61
2021/04/30 05:31:41;;;;;;;78.30;13.88;;;26.60;23.30;;;;;;5098300;28;20088;-61
2021/04/30 05:34:08;;;;;;;87.72;14.35;;;26.60;23.30;;;;;;5080311;28;20634;-62
2021/04/30 05:36:34;;;;;;;61.28;14.07;;;26.60;23.30;;;;;;5099195;28;20073;-62
2021/04/30 05:39:01;;;;;;;83.50;15.02;;;26.60;23.30;;;;;;5101708;28;20072;-61
2021/04/30 05:41:27;;;;;;;87.15;16.02;;;26.50;23.10;;;;;;5097720;28;20084;-63
2021/04/30 05:43:54;;;;;;;93.78;16.42;;;26.40;22.90;;;;;;5098147;28;20075;-64
2021/04/30 05:46:20;;;;;;;79.85;15.05;;;26.40;22.90;;;;;;5099333;28;20198;-62
2021/04/30 05:48:47;;;;;;;79.93;15.73;;;26.30;22.90;;;;;;5091597;28;20072;-62
2021/04/30 05:51:15;;;;;;;87.95;15.63;;;26.30;22.80;;;;;;5095194;28;20437;-63
2021/04/30 05:53:41;;;;;;;76.03;14.45;;;26.20;22.80;;;;;;5079870;28;20539;-62
2021/04/30 05:56:08;;;;;;;94.82;16.90;;;26.10;22.70;;;;;;5098931;28;20079;-63
2021/04/30 05:58:34;;;;;;;91.40;15.77;;;26.10;22.90;;;;;;5094685;28;20650;-63
2021/04/30 06:01:01;;;;;;;89.65;16.15;;;26.10;22.90;;;;;;5097194;28;20579;-63
2021/04/30 06:03:27;;;;;;;79.15;16.17;;;26.00;22.90;;;;;;5095467;28;20076;-64
2021/04/30 06:05:54;;;;;;;84.38;16.83;;;26.00;23.10;;;;;;5097103;28;20116;-63
2021/04/30 06:08:21;;;;;;;84.43;16.92;;;25.90;23.20;;;;;;5094470;28;20073;-63
2021/04/30 06:10:47;;;;;;;80.28;16.40;;;25.90;22.80;;;;;;5093787;28;20076;-62
2021/04/30 06:13:14;;;;;;;86.72;17.13;;;25.80;23.10;;;;;;5093453;28;20112;-65
2021/04/30 06:15:40;;;;;;;84.28;15.82;;;25.80;22.80;;;;;;5091403;28;20072;-63
2021/04/30 06:18:07;;;;;;;91.03;17.30;;;25.80;22.80;;;;;;5077507;28;20456;-60
2021/04/30 06:20:33;;;;;;;99.78;18.15;;;25.70;23.30;;;;;;5095582;28;20126;-61
2021/04/30 06:23:00;;;;;;;81.15;17.65;;;25.80;23.30;;;;;;5082401;28;20090;-61
2021/04/30 06:25:26;;;;;;;77.03;17.75;;;25.70;23.10;;;;;;5076544;28;20077;-62
2021/04/30 06:27:53;;;;;;;76.68;16.20;;;25.70;23.50;;;;;;5092534;28;20081;-63
2021/04/30 06:30:20;;;;;;;59.28;15.63;;;25.70;23.40;;;;;;5098249;28;20071;-62
2021/04/30 06:32:46;;;;;;;84.60;16.63;;;25.70;23.60;;;;;;5092928;28;20585;-62
2021/04/30 06:35:13;;;;;;;71.50;15.32;;;25.60;23.70;;;;;;5095885;28;20639;-62
2021/04/30 06:37:40;;;;;;;67.85;16.42;;;25.60;24.20;;;;;;5094616;28;20092;-62
2021/04/30 06:40:08;;;;;;;82.18;17.40;;;25.50;24.30;;;;;;5093551;28;20068;-62
2021/04/30 06:42:34;;;;;;;59.42;15.27;;;25.50;24.50;;;;;;5094239;28;20069;-62
2021/04/30 06:45:01;;;;;;;85.20;16.38;;;25.50;24.40;;;;;;5095643;28;20064;-61
2021/04/30 06:47:28;;;;;;;73.05;17.05;;;25.40;24.70;;;;;;5094573;28;20161;-61
2021/04/30 06:49:55;;;;;;;95.93;15.40;;;25.40;24.80;;;;;;5093303;28;20072;-62
2021/04/30 06:52:22;;;;;;;74.20;16.65;;;25.40;24.70;;;;;;5093437;28;20093;-61
2021/04/30 06:54:48;;;;;;;85.78;16.50;;;25.20;24.80;;;;;;5102001;28;20432;-61
2021/04/30 06:57:18;;;;;;;78.10;16.40;;;25.20;24.80;;;;;;5083073;28;20155;-62
2021/04/30 06:59:45;;;;;;;66.38;16.00;;;25.20;24.80;;;;;;5097452;28;20152;-62
2021/04/30 07:02:12;;;;;;;62.70;16.52;;;25.10;24.80;;;;;;5099886;28;20099;-61
2021/04/30 07:04:38;;;;;;;82.57;17.90;;;25.10;24.90;;;;;;5069131;28;20098;-62
2021/04/30 07:07:05;;;;;;;74.72;18.83;;;25.00;24.80;;;;;;5085971;28;20412;-61
2021/04/30 07:09:32;;;;;;;83.75;18.27;;;25.00;24.70;;;;;;5087268;28;21257;-63
2021/04/30 07:11:59;;;;;;;68.60;19.35;;;24.90;24.70;;;;;;5104366;28;20091;-62
2021/04/30 07:14:26;;;;;;;91.93;19.75;;;24.90;24.80;;;;;;5098277;28;20091;-62
2021/04/30 07:16:53;;;;;;;87.80;20.90;;;24.90;25.20;;;;;;5103873;28;20076;-63
2021/04/30 07:19:20;;;;;;;88.90;22.05;;;24.90;25.50;;;;;;5101716;28;20541;-62
2021/04/30 07:21:47;;;;;;;91.20;19.30;;;24.80;25.50;;;;;;5103858;28;20481;-62
2021/04/30 07:24:13;;;;;;;81.40;19.17;;;24.80;25.50;;;;;;5101268;28;20133;-65
2021/04/30 07:26:40;;;;;;;86.88;19.55;;;24.70;25.40;;;;;;5099089;28;20073;-63
2021/04/30 07:29:06;;;;;;;83.65;19.77;;;24.70;25.30;;;;;;5101043;28;20083;-60
2021/04/30 07:31:33;;;;;;;85.22;20.25;;;24.60;25.50;;;;;;5102146;28;20111;-62
2021/04/30 07:33:59;;;;;;;82.50;20.73;;;24.70;26.00;;;;;;5101542;28;20080;-61
2021/04/30 07:36:25;;;;;;;77.45;18.85;;;24.60;25.30;;;;;;5102067;28;20159;-61
2021/04/30 07:38:52;;;;;;;80.07;17.88;;;24.60;25.50;;;;;;5099585;28;20091;-62
2021/04/30 07:41:18;;;;;;;77.22;19.27;;;24.50;25.40;;;;;;5104033;28;20118;-62
2021/04/30 07:43:45;;;;;;;93.63;21.52;;;24.50;25.80;;;;;;5101283;28;20150;-61
2021/04/30 07:46:12;;;;;;;90.03;20.02;;;24.40;25.60;;;;;;5100806;28;20570;-62
2021/04/30 07:48:38;;;;;;;86.60;20.00;;;24.40;25.70;;;;;;5101703;28;20076;-61
2021/04/30 07:51:05;;;;;;;98.90;22.65;;;24.40;25.90;;;;;;5083129;28;20087;-60
2021/04/30 07:53:34;;;;;;;90.25;21.92;;;24.40;25.60;;;;;;5102373;28;20576;-61
2021/04/30 07:56:01;;;;;;;98.70;23.05;;;24.40;26.00;;;;;;5099550;28;20080;-62
2021/04/30 07:58:28;;;;;;;80.55;22.10;;;24.30;26.00;;;;;;5099474;28;20085;-61
2021/04/30 08:00:56;;;;;;;92.60;22.20;;;24.30;26.10;;;;;;5099464;28;20072;-60
2021/04/30 08:03:23;;;;;;;87.07;21.85;;;24.30;33.60;;;;;;5101170;28;20073;-62
2021/04/30 08:05:51;;;;;;;82.07;21.27;;;24.30;26.30;;;;;;5100059;28;20542;-62
2021/04/30 08:08:18;;;;;;;78.55;19.45;;;24.30;26.40;;;;;;5100082;28;20414;-62
2021/04/30 08:10:45;;;;;;;93.78;21.17;;;24.20;26.60;;;;;;5077998;28;20103;-62
2021/04/30 08:13:13;;;;;;;78.63;21.17;;;24.20;26.60;;;;;;5096636;28;20557;-62
2021/04/30 08:15:40;;;;;;;86.55;23.65;;;24.10;26.50;;;;;;5078929;28;20076;-61
2021/04/30 08:18:06;;;;;;;90.22;25.13;;;24.10;26.50;;;;;;5100589;28;20605;-61
2021/04/30 08:20:33;;;;;;;87.22;25.83;;;24.00;26.40;;;;;;5097574;28;20064;-61
2021/04/30 08:23:00;;;;;;;85.65;23.42;;;24.00;26.50;;;;;;5097570;28;20484;-60
2021/04/30 08:25:26;;;;;;;92.13;22.90;;;23.30;41.40;;;;;;5096692;28;20155;-62
2021/04/30 08:27:53;;;;;;;82.22;22.73;;;23.90;27.30;;;;;;5097665;28;20103;-60
2021/04/30 08:30:20;;;;;;;81.15;22.02;;;23.90;27.00;;;;;;5093571;28;20440;-61
2021/04/30 08:32:46;;;;;;;88.60;22.10;;;23.90;27.30;;;;;;5101356;28;20106;-61
2021/04/30 08:35:13;;;;;;;78.88;21.42;;;23.90;27.30;;;;;;5089196;28;20551;-60
2021/04/30 08:37:39;;;;;;;94.22;21.88;;;23.80;27.20;;;;;;5091729;28;20081;-60
2021/04/30 08:40:07;;;;;;;95.22;22.02;;;23.80;27.20;;;;;;5098473;28;20083;-59
2021/04/30 08:42:34;;;;;;;84.65;22.33;;;23.70;27.30;;;;;;5095521;28;20134;-61
2021/04/30 08:45:02;;;;;;;74.13;21.65;;;23.70;27.40;;;;;;5092858;28;20167;-60
2021/04/30 08:47:28;;;;;;;90.43;23.30;;;23.00;43.10;;;;;;5097787;28;20112;-60
2021/04/30 08:49:56;;;;;;;86.50;20.42;;;23.60;36.30;;;;;;5092243;28;20482;-61
2021/04/30 08:52:23;;;;;;;91.70;22.45;;;23.60;27.60;;;;;;5096953;28;20146;-61
2021/04/30 08:54:54;;;;;;;76.70;19.65;;;23.50;27.40;;;;;;5097952;28;20072;-61
2021/04/30 08:57:25;;;;;;;75.07;19.08;;;23.50;27.30;;;;;;5091498;28;20436;-60
2021/04/30 08:59:59;;;;;;;74.00;16.80;;;23.50;27.40;;;;;;5096169;28;20076;-60
2021/04/30 09:02:34;;;;;;;79.63;17.55;;;23.50;27.30;;;;;;5079504;28;20405;-61
2021/04/30 09:05:01;;;;;;;67.32;16.75;;;23.40;26.90;;;;;;5096057;28;20072;-60
2021/04/30 09:07:27;;;;;;;68.45;15.73;;;23.40;27.00;;;;;;5077934;28;20083;-60
2021/04/30 09:10:13;;;;;;;57.05;14.88;;;23.40;26.50;;;;;;5097206;28;20079;-62
2021/04/30 09:12:40;;;;;;;60.33;12.32;;;23.40;26.00;;;;;;5095227;28;20132;-60
2021/04/30 09:15:29;;;;;;;53.35;11.70;;;23.40;25.70;;;;;;5100513;28;20079;-61
2021/04/30 09:17:59;;;;;;;44.17;10.85;;;23.50;25.60;;;;;;5093876;28;20112;-62
2021/04/30 09:20:38;;;;;;;44.00;10.40;;;23.40;25.20;;;;;;5097141;28;20064;-62
2021/04/30 09:23:04;;;;;;;46.30;9.68;;;23.50;25.30;;;;;;5097017;28;20083;-61
2021/04/30 09:25:31;;;;;;;43.35;9.70;;;23.40;25.30;;;;;;5094097;28;20073;-61
2021/04/30 09:27:58;;;;;;;49.00;9.90;;;23.50;25.30;;;;;;5081269;28;20095;-61
2021/04/30 09:30:27;;;;;;;30.17;8.02;;;23.40;25.00;;;;;;5092808;28;20076;-61
2021/04/30 09:33:06;;;;;;;32.17;6.55;;;23.40;24.90;;;;;;5093076;28;20108;-59
2021/04/30 09:35:38;;;;;;;32.60;6.40;;;23.40;24.60;;;;;;5095864;28;20071;-62
2021/04/30 09:38:19;;;;;;;22.58;5.43;;;23.30;24.40;;;;;;5099910;28;20134;-62
2021/04/30 09:40:47;;;;;;;14.95;4.00;;;23.30;24.30;;;;;;5083057;28;20595;-63
2021/04/30 09:43:15;;;;;;;19.02;4.00;;;23.30;24.00;;;;;;5093956;28;20151;-60
2021/04/30 09:45:45;;;;;;;15.25;4.10;;;23.30;24.00;;;;;;5079924;28;20171;-59
2021/04/30 09:48:14;;;;;;;14.65;3.60;;;23.30;23.90;;;;;;5095329;28;20119;-57
2021/04/30 09:50:43;;;;;;;15.10;3.72;;;23.30;23.80;;;;;;5099199;28;20155;-61
2021/04/30 09:53:17;;;;;;;11.52;3.33;;;23.30;23.90;;;;;;5094351;28;20136;-62
2021/04/30 09:55:55;;;;;;;12.77;3.60;;;23.30;24.30;;;;;;5099180;28;20182;-63
2021/04/30 09:58:23;;;;;;;10.60;3.10;;;23.30;23.70;;;;;;5079812;28;20413;-61
2021/04/30 10:00:59;;;;;;;15.88;3.42;;;23.10;23.80;;;;;;5094641;28;20076;-57
2021/04/30 10:03:30;;;;;;;16.25;3.03;;;23.10;23.90;;;;;;5095216;28;20449;-59
2021/04/30 10:06:07;;;;;;;16.70;2.90;;;23.10;24.00;;;;;;5098821;28;20525;-55
2021/04/30 10:08:35;;;;;;;9.57;2.60;;;23.10;24.10;;;;;;5097480;28;20525;-60
2021/04/30 10:11:02;;;;;;;11.90;2.80;;;23.10;24.20;;;;;;5098755;28;20232;-61
2021/04/30 10:13:30;;;;;;;13.80;2.70;;;23.10;24.10;;;;;;5098014;28;20092;-63
2021/04/30 10:15:57;;;;;;;13.20;2.67;;;23.10;24.10;;;;;;5096612;28;20077;-60
2021/04/30 10:18:25;;;;;;;9.70;1.88;;;23.00;23.60;;;;;;5092924;28;20225;-60
2021/04/30 10:20:53;;;;;;;7.22;1.80;;;23.00;22.90;;;;;;5095879;28;20518;-61
2021/04/30 10:23:22;;;;;;;5.90;1.80;;;23.00;23.00;;;;;;5097119;28;20080;-61
2021/04/30 10:25:51;;;;;;;6.85;1.95;;;23.00;22.90;;;;;;5097681;28;20072;-62
2021/04/30 10:28:25;;;;;;;3.67;1.50;;;22.90;22.70;;;;;;5096418;28;20106;-62
2021/04/30 10:31:10;;;;;;;4.97;1.60;;;22.80;22.50;;;;;;5095339;28;20539;-62
2021/04/30 10:33:54;;;;;;;10.38;1.65;;;22.80;22.60;;;;;;5095792;28;20100;-61
2021/04/30 10:36:34;;;;;;;4.65;1.33;;;22.80;22.70;;;;;;5097513;28;20065;-59
2021/04/30 10:39:02;;;;;;;5.75;1.52;;;22.90;22.90;;;;;;5092823;28;20170;-59
2021/04/30 10:41:36;;;;;;;7.47;1.52;;;22.90;23.00;;;;;;5094862;28;20154;-61
2021/04/30 10:44:24;;;;;;;5.95;1.50;;;22.80;23.00;;;;;;5095346;28;20095;-61
2021/04/30 10:47:01;;;;;;;;;;;22.80;22.90;;;;;;5080735;28;20454;-61
2021/04/30 10:49:28;;;;;;;8.65;1.27;;;22.70;22.90;;;;;;5094225;28;20405;-61
2021/04/30 10:52:07;;;;;;;4.72;1.13;;;22.70;23.00;;;;;;5093490;28;20088;-62
2021/04/30 10:54:35;;;;;;;7.07;1.60;;;22.70;23.20;;;;;;5092612;28;20087;-59
2021/04/30 10:57:13;;;;;;;10.90;1.30;;;22.70;23.30;;;;;;5093789;28;20122;-60
2021/04/30 10:59:40;;;;;;;6.95;1.58;;;22.60;23.30;;;;;;5098255;28;20075;-60
2021/04/30 11:02:20;;;;;;;8.05;1.40;;;22.60;23.30;;;;;;5095452;28;20549;-61
2021/04/30 11:05:13;;;;;;;3.17;1.10;;;22.60;23.10;;;;;;5096908;28;20575;-62
2021/04/30 11:07:52;;;;;;;11.07;1.33;;;22.60;23.40;;;;;;5094913;28;20479;-62
2021/04/30 11:10:30;;;;;;;5.97;1.33;;;22.60;23.70;;;;;;5096302;28;20104;-62
2021/04/30 11:13:04;;;;;;;7.90;1.27;;;22.50;37.70;;;;;;5095655;28;20114;-61
2021/04/30 11:15:32;;;;;;;10.60;1.67;;;22.50;23.40;;;;;;5091725;28;20164;-61
2021/04/30 11:18:03;;;;;;;7.22;1.52;;;22.50;23.20;;;;;;5093694;28;20073;-62
2021/04/30 11:20:32;;;;;;;6.78;1.30;;;22.50;22.70;;;;;;5094647;28;20439;-61
2021/04/30 11:23:21;;;;;;;4.80;1.27;;;22.50;22.20;;;;;;5094442;28;20160;-59
2021/04/30 11:28:32;;;;;;;8.50;1.60;;;22.60;21.40;;;;;;5093466;28;20077;-61
2021/04/30 11:31:02;;;;;;;5.90;1.27;;;22.60;21.30;;;;;;5095268;28;20079;-62
2021/04/30 11:33:29;;;;;;;11.63;1.38;;;22.60;21.30;;;;;;5093227;28;20130;-61
2021/04/30 11:35:57;;;;;;;10.93;1.75;;;22.60;21.20;;;;;;5094446;28;20182;-62
2021/04/30 11:38:41;;;;;;;15.00;1.60;;;22.60;21.10;;;;;;5097103;28;20117;-60
2021/04/30 11:41:08;;;;;;;5.85;1.30;;;22.70;21.10;;;;;;5099047;28;20076;-61
2021/04/30 11:43:37;;;;;;;13.07;1.77;;;22.70;21.20;;;;;;5102160;28;20068;-61
2021/04/30 11:46:03;;;;;;;7.25;1.33;;;22.70;21.20;;;;;;5097887;28;20072;-64
2021/04/30 11:48:31;;;;;;;5.57;1.45;;;22.70;21.00;;;;;;5098974;28;20104;-62
2021/04/30 11:51:11;;;;;;;8.50;1.50;;;22.70;21.00;;;;;;5083403;28;20073;-61
2021/04/30 11:53:43;;;;;;;5.28;1.83;;;22.70;21.50;;;;;;5099305;28;20092;-61
2021/04/30 11:56:11;;;;;;;9.48;1.65;;;22.60;21.20;;;;;;5098620;28;20135;-62
2021/04/30 11:58:45;;;;;;;5.65;1.85;;;22.60;21.20;;;;;;5102047;28;20123;-62
2021/04/30 12:01:15;;;;;;;9.00;1.77;;;22.60;21.20;;;;;;5101089;28;20508;-62
2021/04/30 12:03:43;;;;;;;9.48;1.73;;;22.60;21.50;;;;;;5098851;28;20068;-61
2021/04/30 12:06:18;;;;;;;14.55;1.75;;;22.60;21.00;;;;;;5098963;28;20439;-61
2021/04/30 12:08:47;;;;;;;12.63;1.52;;;22.50;21.00;;;;;;5099369;28;20075;-62
2021/04/30 12:11:30;;;;;;;7.60;1.70;;;22.50;21.00;;;;;;5083390;28;20083;-60
2021/04/30 12:14:02;;;;;;;7.20;1.58;;;22.50;21.20;;;;;;5099735;28;20169;-61
2021/04/30 12:16:29;;;;;;;10.07;1.98;;;22.50;21.30;;;;;;5097812;28;20544;-61
2021/04/30 12:18:55;;;;;;;8.35;1.63;;;22.40;21.20;;;;;;5099905;28;20080;-62
2021/04/30 12:21:27;;;;;;;13.55;1.77;;;22.40;21.30;;;;;;5095149;28;20097;-60
2021/04/30 12:23:54;;;;;;;8.45;1.40;;;22.40;21.10;;;;;;5097664;28;20155;-62
2021/04/30 12:26:32;;;;;;;9.82;2.03;;;22.40;21.20;;;;;;5094006;28;20087;-60
2021/04/30 12:29:00;;;;;;;14.73;2.40;;;22.40;21.30;;;;;;5095495;28;20665;-58
2021/04/30 12:31:27;;;;;;;6.30;1.90;;;22.40;21.40;;;;;;5081598;28;20081;-62
2021/04/30 12:33:56;;;;;;;6.43;1.33;;;22.30;21.20;;;;;;5081464;28;20158;-60
2021/04/30 12:36:33;;;;;;;11.82;2.28;;;22.30;21.20;;;;;;5098428;28;20104;-62
2021/04/30 12:39:03;;;;;;;9.23;1.90;;;22.30;21.20;;;;;;5098646;28;20069;-61
2021/04/30 12:41:34;;;;;;;10.75;2.28;;;22.30;21.20;;;;;;5094748;28;20068;-61
2021/04/30 12:44:04;;;;;;;8.70;1.85;;;22.20;21.10;;;;;;5095991;28;20073;-61
2021/04/30 12:46:33;;;;;;;8.45;2.10;;;22.20;21.10;;;;;;5091812;28;20445;-61
2021/04/30 12:49:05;;;;;;;11.95;2.70;;;22.20;21.20;;;;;;5098284;28;20077;-61